Time;durP1;ratioP1;P1;durP2;ratioP2;P2;SDS_P1;SDS_P2;PMS_P1;PMS_P2;Temp;Humidity;BMP_temperature;BMP_pressure;BME280_temperature;BME280_humidity;BME280_pressure;Samples;Min_cycle;Max_cycle;Signal;HPM_P1;HPM_P2
2021/03/26 00:01:18;;;;;;;22.07;13.03;;;7.10;81.40;;;;;;5015565;28;20108;-78
2021/03/26 00:03:46;;;;;;;;;;;7.10;81.70;;;;;;5012566;28;20116;-79
2021/03/26 00:06:15;;;;;;;19.73;11.83;;;7.10;81.80;;;;;;5015154;28;20004;-77
2021/03/26 00:08:41;;;;;;;23.27;12.87;;;7.10;81.60;;;;;;5032986;28;20041;-79
2021/03/26 00:11:08;;;;;;;26.43;14.13;;;7.10;82.00;;;;;;5015171;28;20386;-78
2021/03/26 00:13:34;;;;;;;24.43;15.80;;;7.10;82.20;;;;;;5032850;28;20037;-78
2021/03/26 00:16:00;;;;;;;32.07;17.70;;;7.10;82.60;;;;;;5015467;28;20056;-78
2021/03/26 00:18:26;;;;;;;28.57;17.97;;;7.10;83.10;;;;;;5015591;28;20120;-78
2021/03/26 00:20:52;;;;;;;33.27;19.13;;;7.10;83.30;;;;;;5032851;28;20113;-78
2021/03/26 00:23:17;;;;;;;29.03;19.70;;;7.10;83.80;;;;;;5015168;28;20076;-78
2021/03/26 00:25:43;;;;;;;33.47;19.57;;;7.10;83.80;;;;;;5031186;28;20029;-79
2021/03/26 00:28:09;;;;;;;32.67;19.93;;;7.10;84.10;;;;;;5031542;28;20041;-78
2021/03/26 00:30:36;;;;;;;35.33;20.97;;;7.10;84.40;;;;;;5032557;28;20037;-78
2021/03/26 00:33:04;;;;;;;34.70;21.00;;;7.20;84.50;;;;;;5015356;28;20080;-79
2021/03/26 00:35:30;;;;;;;29.13;18.60;;;7.10;84.70;;;;;;5033043;28;20040;-78
2021/03/26 00:37:56;;;;;;;35.23;21.30;;;7.10;85.00;;;;;;5031433;28;20025;-78
2021/03/26 00:40:22;;;;;;;32.43;19.93;;;7.10;85.00;;;;;;5032647;28;20025;-79
2021/03/26 00:42:49;;;;;;;30.17;19.10;;;7.10;84.90;;;;;;5015047;28;20029;-78
2021/03/26 00:45:18;;;;;;;33.30;20.63;;;7.10;85.00;;;;;;5015145;28;20037;-79
2021/03/26 00:47:44;;;;;;;33.00;19.80;;;7.10;85.10;;;;;;5014677;28;20033;-78
2021/03/26 00:50:28;;;;;;;37.00;21.03;;;7.10;85.30;;;;;;5015199;28;20028;-78
2021/03/26 00:52:55;;;;;;;33.22;20.13;;;7.10;85.60;;;;;;5014894;28;20105;-77
2021/03/26 00:55:21;;;;;;;37.77;21.40;;;7.20;85.70;;;;;;5032491;28;20040;-77
2021/03/26 00:57:46;;;;;;;32.87;20.90;;;7.10;86.00;;;;;;5014641;28;20045;-78
2021/03/26 01:00:17;;;;;;;32.87;21.07;;;7.10;86.20;;;;;;5031135;28;20124;-78
2021/03/26 01:02:42;;;;;;;35.00;21.57;;;7.10;86.50;;;;;;5014704;28;20386;-78
2021/03/26 01:05:14;;;;;;;35.37;20.83;;;7.10;86.50;;;;;;5031507;28;20025;-78
2021/03/26 01:07:39;;;;;;;36.63;21.67;;;7.10;86.70;;;;;;5017961;28;20033;-78
2021/03/26 01:10:10;;;;;;;33.63;21.47;;;7.10;86.80;;;;;;5036544;28;20037;-79
2021/03/26 01:12:36;;;;;;;34.53;21.77;;;7.10;86.80;;;;;;5018757;28;20026;-78
2021/03/26 01:15:06;;;;;;;36.77;23.47;;;7.10;86.90;;;;;;5018621;28;20482;-78
2021/03/26 01:17:32;;;;;;;35.80;21.50;;;7.10;87.00;;;;;;5018285;28;20021;-79
2021/03/26 01:19:58;;;;;;;40.13;23.43;;;7.10;87.20;;;;;;5035208;28;20430;-78
2021/03/26 01:22:24;;;;;;;34.80;22.90;;;7.10;87.40;;;;;;5035856;28;20053;-78
2021/03/26 01:24:49;;;;;;;35.23;22.80;;;7.10;87.50;;;;;;5035814;28;20489;-79
2021/03/26 01:27:15;;;;;;;38.77;23.37;;;7.10;87.50;;;;;;5036205;28;20041;-78
2021/03/26 01:29:41;;;;;;;39.83;23.77;;;7.10;87.60;;;;;;5018452;28;20030;-78
2021/03/26 01:32:08;;;;;;;39.83;23.13;;;7.00;87.70;;;;;;5036472;28;20108;-78
2021/03/26 01:34:33;;;;;;;37.30;24.13;;;7.00;88.00;;;;;;5017942;28;20022;-79
2021/03/26 01:36:59;;;;;;;40.53;24.33;;;7.00;88.20;;;;;;5018244;28;20088;-78
2021/03/26 01:39:25;;;;;;;38.37;22.13;;;7.00;88.40;;;;;;5018176;28;20107;-78
2021/03/26 01:41:50;;;;;;;38.70;23.13;;;7.10;88.60;;;;;;5017996;28;20474;-78
2021/03/26 01:44:20;;;;;;;35.80;21.27;;;7.10;88.90;;;;;;5017958;28;20026;-78
2021/03/26 01:46:47;;;;;;;39.43;22.47;;;7.10;89.00;;;;;;5017523;28;20025;-78
2021/03/26 01:49:13;;;;;;;34.50;21.53;;;7.20;89.20;;;;;;5035496;28;20049;-79
2021/03/26 01:51:50;;;;;;;32.63;20.90;;;7.20;89.50;;;;;;5018118;28;20099;-79
2021/03/26 01:54:18;;;;;;;34.07;21.43;;;7.30;89.60;;;;;;5017564;28;20021;-79
2021/03/26 01:56:44;;;;;;;32.23;21.27;;;7.40;89.60;;;;;;5017750;28;20032;-76
2021/03/26 01:59:10;;;;;;;36.10;22.50;;;7.30;89.50;;;;;;5034001;28;20053;-77
2021/03/26 02:01:47;;;;;;;33.07;20.20;;;7.30;89.90;;;;;;5017499;28;20048;-77
2021/03/26 02:04:26;;;;;;;35.30;21.97;;;7.40;89.90;;;;;;5035458;28;20040;-77
2021/03/26 02:06:55;;;;;;;29.00;19.90;;;7.40;90.00;;;;;;5017951;28;20040;-77
2021/03/26 02:09:29;;;;;;;35.73;21.93;;;7.40;90.10;;;;;;5034947;28;20486;-77
2021/03/26 02:11:59;;;;;;;35.80;20.63;;;7.50;89.90;;;;;;5017779;28;20029;-77
2021/03/26 02:14:32;;;;;;;37.57;22.30;;;7.40;89.90;;;;;;5035053;28;20099;-77
2021/03/26 02:16:58;;;;;;;34.07;21.00;;;7.40;90.00;;;;;;5017129;28;20105;-77
2021/03/26 02:19:29;;;;;;;41.70;22.83;;;7.30;90.30;;;;;;5034993;28;20507;-77
2021/03/26 02:21:55;;;;;;;34.93;21.63;;;7.30;90.30;;;;;;5017409;28;20022;-77
2021/03/26 02:24:24;;;;;;;33.07;21.50;;;7.30;90.30;;;;;;5032604;28;20359;-78
2021/03/26 02:26:52;;;;;;;34.23;21.40;;;7.40;90.20;;;;;;5032299;28;20044;-76
2021/03/26 02:29:24;;;;;;;35.13;22.57;;;7.30;90.20;;;;;;5033438;28;20037;-77
2021/03/26 02:31:53;;;;;;;36.33;21.77;;;7.30;90.30;;;;;;5033157;28;20043;-78
2021/03/26 02:34:21;;;;;;;39.40;23.33;;;7.30;90.30;;;;;;5033714;28;20029;-78
2021/03/26 02:36:53;;;;;;;39.33;23.80;;;7.30;90.40;;;;;;5016906;28;20025;-78
2021/03/26 02:39:33;;;;;;;34.50;22.07;;;7.20;90.40;;;;;;5034869;28;20067;-79
2021/03/26 02:42:04;;;;;;;36.10;23.27;;;7.30;90.40;;;;;;5016277;28;20065;-78
2021/03/26 02:44:38;;;;;;;35.50;23.43;;;7.20;90.30;;;;;;5016586;28;20022;-78
2021/03/26 02:47:37;;;;;;;35.50;22.97;;;7.20;90.40;;;;;;5034620;28;20026;-78
2021/03/26 02:50:10;;;;;;;41.37;23.73;;;7.20;90.40;;;;;;5034701;28;20034;-77
2021/03/26 02:52:58;;;;;;;42.17;22.42;;;7.10;90.30;;;;;;5016839;28;20029;-77
2021/03/26 02:55:35;;;;;;;37.47;22.00;;;7.10;90.20;;;;;;5033338;28;20112;-77
2021/03/26 02:58:03;;;;;;;35.87;22.93;;;7.10;90.30;;;;;;5034404;28;20057;-78
2021/03/26 03:00:40;;;;;;;38.27;22.30;;;7.10;90.30;;;;;;5016974;28;20029;-78
2021/03/26 03:03:07;;;;;;;37.70;22.03;;;7.20;90.40;;;;;;5016450;28;20026;-78
2021/03/26 03:05:38;;;;;;;33.97;21.23;;;7.20;90.40;;;;;;5016619;28;20026;-78
2021/03/26 03:08:14;;;;;;;40.50;24.13;;;7.20;90.70;;;;;;5034356;28;20037;-78
2021/03/26 03:10:48;;;;;;;43.10;23.90;;;7.20;90.60;;;;;;5034027;28;20462;-78
2021/03/26 03:13:32;;;;;;;39.27;24.00;;;7.30;90.60;;;;;;5016630;28;20021;-78
2021/03/26 03:16:07;;;;;;;42.72;24.73;;;7.30;90.70;;;;;;5034068;28;20029;-78
2021/03/26 03:18:38;;;;;;;40.63;24.33;;;7.40;90.80;;;;;;5034031;28;20021;-78
2021/03/26 03:21:17;;;;;;;41.30;26.07;;;7.40;90.80;;;;;;5032352;28;20029;-78
2021/03/26 03:24:15;;;;;;;36.77;23.17;;;7.40;90.80;;;;;;5033991;28;20029;-78
2021/03/26 03:26:46;;;;;;;39.50;24.90;;;7.50;90.80;;;;;;5033223;28;20038;-79
2021/03/26 03:29:26;;;;;;;43.00;25.83;;;7.50;90.80;;;;;;5015226;28;20036;-79
2021/03/26 03:31:58;;;;;;;39.20;24.90;;;7.60;91.00;;;;;;5033607;28;20037;-78
2021/03/26 03:34:36;;;;;;;41.60;26.73;;;7.60;91.00;;;;;;5034016;28;20021;-78
2021/03/26 03:37:07;;;;;;;45.67;25.97;;;7.70;91.30;;;;;;5016359;28;20382;-78
2021/03/26 03:40:01;;;;;;;42.80;26.07;;;7.70;91.20;;;;;;5016147;28;20036;-79
2021/03/26 03:42:55;;;;;;;40.10;26.83;;;7.80;91.20;;;;;;5032319;28;20474;-78
2021/03/26 03:45:30;;;;;;;42.63;26.58;;;7.90;91.30;;;;;;5015846;28;20025;-78
2021/03/26 03:48:12;;;;;;;40.93;25.93;;;7.90;91.30;;;;;;5015773;28;20045;-78
2021/03/26 03:50:41;;;;;;;40.10;25.70;;;7.90;91.30;;;;;;5013128;28;20041;-77
2021/03/26 03:53:31;;;;;;;45.20;28.20;;;7.90;91.20;;;;;;5015534;28;20022;-76
2021/03/26 03:56:06;;;;;;;42.43;26.57;;;7.90;91.30;;;;;;5031713;28;20497;-78
2021/03/26 03:58:39;;;;;;;46.60;28.90;;;8.00;91.60;;;;;;5033154;28;20049;-79
2021/03/26 04:01:17;;;;;;;45.60;28.03;;;8.00;91.60;;;;;;5032175;28;20029;-78
2021/03/26 04:03:55;;;;;;;43.90;27.27;;;8.10;91.70;;;;;;5033174;28;20036;-78
2021/03/26 04:06:35;;;;;;;44.50;27.13;;;8.10;91.40;;;;;;5032743;28;20474;-78
2021/03/26 04:09:07;;;;;;;42.93;27.03;;;8.10;91.40;;;;;;5031800;28;20440;-79
2021/03/26 04:11:49;;;;;;;43.97;27.73;;;8.10;91.40;;;;;;5015499;28;20544;-78
2021/03/26 04:14:26;;;;;;;42.70;27.27;;;8.20;91.40;;;;;;5033132;28;20060;-79
2021/03/26 04:17:20;;;;;;;41.87;27.27;;;8.20;91.50;;;;;;5015192;28;20395;-79
2021/03/26 04:19:51;;;;;;;41.83;25.03;;;8.20;91.40;;;;;;5015290;28;20524;-79
2021/03/26 04:22:22;;;;;;;44.13;27.97;;;8.30;91.40;;;;;;5015585;28;20116;-79
2021/03/26 04:24:57;;;;;;;44.53;27.00;;;8.30;91.50;;;;;;5015067;28;20041;-79
2021/03/26 04:27:41;;;;;;;39.03;25.40;;;8.30;91.40;;;;;;5033126;28;20490;-80
2021/03/26 04:30:21;;;;;;;42.65;27.23;;;8.30;91.40;;;;;;5032871;28;20037;-79
2021/03/26 04:32:48;;;;;;;43.43;26.27;;;8.30;91.30;;;;;;5014055;28;20025;-79
2021/03/26 04:35:16;;;;;;;42.73;27.07;;;8.30;91.40;;;;;;5031445;28;20470;-79
2021/03/26 04:38:00;;;;;;;41.00;26.23;;;8.30;91.30;;;;;;5014713;28;20025;-79
2021/03/26 04:40:55;;;;;;;43.50;25.05;;;8.40;91.30;;;;;;5016600;28;20025;-79
2021/03/26 04:43:41;;;;;;;40.73;24.40;;;8.40;91.30;;;;;;5032923;28;20105;-78
2021/03/26 04:46:21;;;;;;;39.03;24.57;;;8.40;91.20;;;;;;5018496;28;20028;-79
2021/03/26 04:49:28;;;;;;;41.57;24.83;;;8.40;91.10;;;;;;5036826;28;20033;-79
2021/03/26 04:52:08;;;;;;;48.50;28.57;;;8.40;91.10;;;;;;5036191;28;20038;-78
2021/03/26 04:54:46;;;;;;;46.60;28.63;;;8.50;91.20;;;;;;5018800;28;20056;-78
2021/03/26 04:57:22;;;;;;;47.83;28.60;;;8.50;91.10;;;;;;5019130;28;20099;-77
2021/03/26 05:00:03;;;;;;;45.90;28.13;;;8.50;91.10;;;;;;5034345;28;20069;-78
2021/03/26 05:02:31;;;;;;;42.67;27.13;;;8.50;91.10;;;;;;5016834;28;20028;-78
2021/03/26 05:04:59;;;;;;;42.67;27.70;;;8.50;91.10;;;;;;5017893;28;20053;-79
2021/03/26 05:07:37;;;;;;;43.63;26.67;;;8.40;91.10;;;;;;5028343;28;20041;-78
2021/03/26 05:10:06;;;;;;;41.83;25.73;;;8.40;91.10;;;;;;5036111;28;20029;-78
2021/03/26 05:12:40;;;;;;;42.93;25.93;;;8.50;91.10;;;;;;5018665;28;20458;-78
2021/03/26 05:15:25;;;;;;;47.53;28.33;;;8.50;91.10;;;;;;5017862;28;20026;-78
2021/03/26 05:18:07;;;;;;;43.00;25.02;;;8.50;91.30;;;;;;5018851;28;20033;-78
2021/03/26 05:20:39;;;;;;;40.90;25.67;;;8.50;91.00;;;;;;5036013;28;20025;-78
2021/03/26 05:23:14;;;;;;;43.10;27.30;;;8.50;91.00;;;;;;5018270;28;20021;-79
2021/03/26 05:25:44;;;;;;;42.57;26.10;;;8.50;90.90;;;;;;5018295;28;20025;-79
2021/03/26 05:28:25;;;;;;;41.90;27.10;;;8.50;90.90;;;;;;5018049;28;20037;-79
2021/03/26 05:30:52;;;;;;;41.27;26.27;;;8.50;90.90;;;;;;5035197;28;20075;-79
2021/03/26 05:33:43;;;;;;;44.80;25.67;;;8.50;90.90;;;;;;5035895;28;20458;-78
2021/03/26 05:36:19;;;;;;;43.73;26.87;;;8.50;90.90;;;;;;5017664;28;20025;-78
2021/03/26 05:38:51;;;;;;;45.13;28.30;;;8.50;90.90;;;;;;5018306;28;20021;-80
2021/03/26 05:41:29;;;;;;;46.67;26.13;;;8.50;90.90;;;;;;5036121;28;20044;-79
2021/03/26 05:44:13;;;;;;;46.40;27.27;;;8.60;90.80;;;;;;5018371;28;20037;-79
2021/03/26 05:47:16;;;;;;;43.20;26.38;;;8.50;90.80;;;;;;5018000;28;20402;-79
2021/03/26 05:50:22;;;;;;;44.13;26.03;;;8.60;90.80;;;;;;5035974;28;20510;-79
2021/03/26 05:52:58;;;;;;;42.40;25.23;;;8.50;90.70;;;;;;5034457;28;20034;-78
2021/03/26 05:55:43;;;;;;;42.67;26.33;;;8.50;90.70;;;;;;5034969;28;20422;-80
2021/03/26 05:58:40;;;;;;;43.90;24.60;;;8.60;90.70;;;;;;5034307;28;20049;-79
2021/03/26 06:01:20;;;;;;;43.53;26.40;;;8.60;90.70;;;;;;5017926;28;20026;-79
2021/03/26 06:04:04;;;;;;;44.93;27.53;;;8.60;90.60;;;;;;5017691;28;20025;-79
2021/03/26 06:06:41;;;;;;;41.22;25.75;;;8.60;90.60;;;;;;5017548;28;20037;-80
2021/03/26 06:09:41;;;;;;;42.80;26.60;;;8.60;90.60;;;;;;5028961;28;20524;-78
2021/03/26 06:12:38;;;;;;;43.43;25.60;;;8.60;90.50;;;;;;5032936;28;20044;-80
2021/03/26 06:15:42;;;;;;;43.13;25.93;;;8.70;90.50;;;;;;5016708;28;20504;-79
2021/03/26 06:18:46;;;;;;;40.97;25.53;;;8.70;90.50;;;;;;5033679;28;20033;-80
2021/03/26 06:21:23;;;;;;;44.60;27.37;;;8.70;90.40;;;;;;5033895;28;20045;-80
2021/03/26 06:24:26;;;;;;;42.33;24.83;;;8.70;90.40;;;;;;5015496;28;20022;-80
2021/03/26 06:27:23;;;;;;;40.83;24.73;;;8.70;90.30;;;;;;5012832;28;20132;-79
2021/03/26 06:30:16;;;;;;;40.50;24.97;;;8.80;90.30;;;;;;5013638;28;20133;-79
2021/03/26 06:33:16;;;;;;;47.47;27.67;;;8.80;90.30;;;;;;5030820;28;20037;-79
2021/03/26 06:36:23;;;;;;;43.70;25.57;;;8.80;90.30;;;;;;5013599;28;20419;-79
2021/03/26 06:39:20;;;;;;;43.63;26.07;;;8.80;90.20;;;;;;5014907;28;20121;-79
2021/03/26 06:41:54;;;;;;;40.97;24.77;;;8.80;90.20;;;;;;5014654;28;20115;-79
2021/03/26 06:44:40;;;;;;;43.42;25.95;;;8.90;90.10;;;;;;5013201;28;20033;-79
2021/03/26 06:48:07;;;;;;;42.17;26.43;;;8.90;90.10;;;;;;5013506;28;20038;-79
2021/03/26 06:51:14;;;;;;;45.10;26.27;;;8.90;90.00;;;;;;4976675;28;20136;-79
2021/03/26 06:54:00;;;;;;;46.60;27.30;;;9.00;90.00;;;;;;5012556;28;20096;-79
2021/03/26 06:56:48;;;;;;;48.33;27.80;;;9.00;89.90;;;;;;5016150;28;20036;-79
2021/03/26 06:59:42;;;;;;;49.80;28.80;;;9.10;89.80;;;;;;5016359;28;20050;-79
2021/03/26 07:02:41;;;;;;;42.60;27.23;;;9.10;89.60;;;;;;5034469;28;20036;-79
2021/03/26 07:05:12;;;;;;;45.53;26.50;;;9.10;89.40;;;;;;5033361;28;20026;-79
2021/03/26 07:08:20;;;;;;;48.30;27.00;;;9.10;89.40;;;;;;5034238;28;20026;-79
2021/03/26 07:10:46;;;;;;;42.67;26.33;;;9.20;89.30;;;;;;5033759;28;20048;-79
2021/03/26 07:13:26;;;;;;;46.20;27.00;;;9.20;89.20;;;;;;5033930;28;20517;-80
2021/03/26 07:16:07;;;;;;;44.03;27.17;;;9.30;88.90;;;;;;5012188;28;20049;-80
2021/03/26 07:18:50;;;;;;;43.77;27.87;;;9.30;88.80;;;;;;5014484;28;20036;-79
2021/03/26 07:21:38;;;;;;;49.38;26.73;;;9.30;88.50;;;;;;5012205;28;20073;-80
2021/03/26 07:24:30;;;;;;;49.93;29.60;;;9.40;88.50;;;;;;5014840;28;20079;-80
2021/03/26 07:27:23;;;;;;;44.67;27.50;;;9.40;88.30;;;;;;5016399;28;20036;-80
2021/03/26 07:30:04;;;;;;;43.07;27.17;;;9.50;88.20;;;;;;5015864;28;20324;-80
2021/03/26 07:32:37;;;;;;;47.00;28.83;;;9.50;88.00;;;;;;5015902;28;20029;-80
2021/03/26 07:35:12;;;;;;;45.35;26.85;;;9.60;87.70;;;;;;5015818;28;20033;-80
2021/03/26 07:38:06;;;;;;;48.97;27.67;;;9.70;87.60;;;;;;5015823;28;20460;-80
2021/03/26 07:40:50;;;;;;;;;;;9.70;87.30;;;;;;4997403;28;20065;-80
2021/03/26 07:43:54;;;;;;;43.00;26.30;;;9.70;86.80;;;;;;5033353;28;19996;-80
2021/03/26 07:46:42;;;;;;;50.27;29.13;;;9.80;86.70;;;;;;5026288;28;20566;-81
2021/03/26 07:49:22;;;;;;;46.53;28.47;;;9.80;86.40;;;;;;5014469;28;20036;-80
2021/03/26 07:52:05;;;;;;;44.87;27.90;;;9.80;86.40;;;;;;5032527;28;20075;-80
2021/03/26 07:55:00;;;;;;;45.77;28.47;;;9.90;86.30;;;;;;5028173;28;20068;-80
2021/03/26 07:57:44;;;;;;;41.00;26.33;;;10.00;86.20;;;;;;5015044;28;20026;-80
2021/03/26 08:00:32;;;;;;;43.63;28.02;;;10.00;86.10;;;;;;5015097;28;20064;-80
2021/03/26 08:03:00;;;;;;;42.00;26.37;;;10.10;85.90;;;;;;5013792;28;20021;-86
2021/03/26 08:05:47;;;;;;;42.90;27.60;;;10.10;85.40;;;;;;5015214;28;20048;-86
2021/03/26 08:08:41;;;;;;;48.47;27.80;;;10.10;85.30;;;;;;5033324;28;20127;-82
2021/03/26 08:11:34;;;;;;;45.38;28.55;;;10.10;85.10;;;;;;5015695;28;20466;-83
2021/03/26 08:14:15;;;;;;;46.90;27.93;;;10.10;85.00;;;;;;5015746;28;20040;-86
2021/03/26 08:17:15;;;;;;;44.23;27.50;;;10.10;84.90;;;;;;5032891;28;20029;-84
2021/03/26 08:19:59;;;;;;;45.47;26.97;;;10.10;85.10;;;;;;5015451;28;20029;-84
2021/03/26 08:22:34;;;;;;;41.65;26.58;;;10.20;85.00;;;;;;5015225;28;20041;-83
2021/03/26 08:25:30;;;;;;;42.67;25.70;;;10.20;84.80;;;;;;5032409;28;20025;-83
2021/03/26 08:28:17;;;;;;;44.97;27.77;;;10.30;84.70;;;;;;5031741;28;20029;-83
2021/03/26 08:31:07;;;;;;;43.13;26.93;;;10.30;84.10;;;;;;5014866;28;20025;-84
2021/03/26 08:33:33;;;;;;;40.40;25.77;;;10.30;84.10;;;;;;5032793;28;20393;-84
2021/03/26 08:36:27;;;;;;;41.90;26.23;;;10.40;83.80;;;;;;5015313;28;20036;-85
2021/03/26 08:39:12;;;;;;;41.25;24.55;;;10.40;83.60;;;;;;5008172;28;20049;-82
2021/03/26 08:41:42;;;;;;;37.58;23.88;;;10.50;83.20;;;;;;5015214;28;20025;-83
2021/03/26 08:44:16;;;;;;;39.47;23.83;;;10.60;82.90;;;;;;5032733;28;20028;-83
2021/03/26 08:46:48;;;;;;;38.20;23.58;;;10.60;82.50;;;;;;5033033;28;20032;-82
2021/03/26 08:49:22;;;;;;;37.90;23.40;;;10.70;82.00;;;;;;5032396;28;20049;-82
2021/03/26 08:51:48;;;;;;;36.17;22.10;;;10.80;81.80;;;;;;5015080;28;20067;-85
2021/03/26 08:54:16;;;;;;;39.03;23.30;;;10.90;81.30;;;;;;5015131;28;20034;-86
2021/03/26 08:56:55;;;;;;;38.67;23.00;;;10.90;80.80;;;;;;5013889;28;20033;-85
2021/03/26 08:59:37;;;;;;;37.33;24.10;;;10.90;80.30;;;;;;4994554;28;20046;-84
2021/03/26 09:02:24;;;;;;;36.63;21.93;;;11.00;80.20;;;;;;5011557;28;20037;-86
2021/03/26 09:04:59;;;;;;;35.93;23.03;;;11.10;79.90;;;;;;5027876;28;20470;-85
2021/03/26 09:07:58;;;;;;;33.33;21.20;;;11.20;80.00;;;;;;5030901;28;20026;-85
2021/03/26 09:11:01;;;;;;;34.83;23.10;;;11.30;79.20;;;;;;5014366;28;20025;-87
2021/03/26 09:13:49;;;;;;;33.67;21.37;;;11.40;78.40;;;;;;5032338;28;20026;-85
2021/03/26 09:16:36;;;;;;;32.03;19.63;;;11.50;78.50;;;;;;4994749;28;20019;-86
2021/03/26 09:19:19;;;;;;;30.70;19.70;;;11.60;78.10;;;;;;5012987;28;20434;-86
2021/03/26 09:21:47;;;;;;;32.53;19.37;;;11.70;77.30;;;;;;4995102;28;20037;-86
2021/03/26 09:24:13;;;;;;;33.90;19.77;;;11.80;76.40;;;;;;5010910;28;20029;-87
2021/03/26 09:27:13;;;;;;;33.20;20.13;;;11.90;76.80;;;;;;4995478;28;20145;-86
2021/03/26 09:29:57;;;;;;;27.77;17.97;;;12.10;77.00;;;;;;5015075;28;20479;-86
2021/03/26 09:32:42;;;;;;;;;;;;;;;;;;;;;
2021/03/26 09:35:19;;;;;;;29.02;17.17;;;12.60;76.30;;;;;;5016552;28;20000;-86
2021/03/26 09:38:15;;;;;;;29.70;18.10;;;12.70;76.50;;;;;;5014968;28;20093;-87
2021/03/26 09:41:03;;;;;;;27.98;16.80;;;12.90;74.10;;;;;;5011071;28;20041;-85
2021/03/26 09:43:46;;;;;;;26.23;16.67;;;13.10;72.90;;;;;;4999156;28;20026;-86
2021/03/26 09:46:29;;;;;;;25.00;14.63;;;13.10;72.30;;;;;;5016408;28;20029;-86
2021/03/26 09:49:13;;;;;;;22.40;14.25;;;13.20;71.30;;;;;;5015278;28;20061;-85
2021/03/26 09:51:56;;;;;;;26.08;12.85;;;13.20;70.60;;;;;;4998778;28;20022;-85
2021/03/26 09:54:40;;;;;;;21.23;12.02;;;13.30;70.20;;;;;;5015820;28;20030;-85
2021/03/26 09:57:18;;;;;;;19.73;11.43;;;13.50;69.60;;;;;;5016616;28;20450;-84
2021/03/26 10:00:13;;;;;;;19.00;9.77;;;13.70;68.70;;;;;;5014690;28;20343;-85
2021/03/26 10:02:53;;;;;;;19.85;10.43;;;13.80;67.20;;;;;;4962373;28;20050;-85
2021/03/26 10:05:47;;;;;;;18.98;10.07;;;14.00;65.40;;;;;;5013288;28;20026;-85
2021/03/26 10:11:28;;;;;;;22.65;11.02;;;14.20;63.70;;;;;;5016383;28;20041;-87
2021/03/26 10:14:08;;;;;;;18.13;9.82;;;14.20;64.00;;;;;;4998025;28;20474;-86
2021/03/26 10:16:42;;;;;;;19.58;11.05;;;14.20;63.80;;;;;;5014853;28;20120;-87
2021/03/26 10:19:15;;;;;;;17.50;9.77;;;14.20;64.40;;;;;;5015035;28;20402;-86
2021/03/26 10:21:48;;;;;;;15.05;9.02;;;14.20;63.90;;;;;;4998137;28;20018;-86
2021/03/26 10:24:22;;;;;;;15.60;8.48;;;14.20;63.80;;;;;;5015796;28;20030;-86
2021/03/26 10:27:01;;;;;;;17.23;7.57;;;14.20;62.90;;;;;;5024184;28;20029;-85
2021/03/26 10:29:48;;;;;;;13.25;6.95;;;14.20;62.10;;;;;;5014539;28;20471;-84
2021/03/26 10:32:21;;;;;;;14.18;6.75;;;14.10;61.80;;;;;;5030778;28;20116;-85
2021/03/26 10:34:49;;;;;;;13.13;6.00;;;14.20;61.30;;;;;;5016665;28;20041;-84
2021/03/26 10:37:36;;;;;;;10.80;6.03;;;14.30;61.70;;;;;;5034222;28;20056;-85
2021/03/26 10:40:14;;;;;;;11.52;5.65;;;14.40;61.70;;;;;;5013379;28;20030;-86
2021/03/26 10:43:08;;;;;;;11.23;5.50;;;14.60;61.70;;;;;;5016187;28;20120;-85
2021/03/26 10:45:43;;;;;;;;;;;14.80;60.60;;;;;;5020970;28;20091;-83
2021/03/26 10:48:27;;;;;;;14.02;5.15;;;14.90;59.90;;;;;;5034085;28;19948;-80
2021/03/26 10:50:53;;;;;;;;;;;15.10;59.30;;;;;;5033877;28;20026;-83
2021/03/26 10:53:22;;;;;;;9.30;3.63;;;15.00;57.90;;;;;;5017077;28;20421;-83
2021/03/26 10:56:01;;;;;;;8.98;3.05;;;15.00;57.60;;;;;;5033997;28;20026;-83
2021/03/26 10:58:35;;;;;;;9.98;3.35;;;15.00;57.50;;;;;;5016397;28;20049;-80
2021/03/26 11:01:18;;;;;;;10.85;3.17;;;15.10;56.40;;;;;;5016946;28;20021;-81
2021/03/26 11:04:04;;;;;;;8.05;3.00;;;15.10;55.60;;;;;;5015589;28;20053;-82
2021/03/26 11:06:42;;;;;;;12.02;3.85;;;15.10;55.40;;;;;;5033087;28;20030;-82
2021/03/26 11:09:33;;;;;;;7.97;2.95;;;15.40;55.40;;;;;;5030961;28;20061;-81
2021/03/26 11:12:29;;;;;;;8.77;2.80;;;15.50;54.20;;;;;;5034105;28;20108;-81
2021/03/26 11:15:12;;;;;;;9.40;2.63;;;15.50;54.00;;;;;;5010338;28;20112;-81
2021/03/26 11:18:04;;;;;;;9.15;2.40;;;15.50;53.50;;;;;;5033289;28;20033;-81
2021/03/26 11:20:42;;;;;;;7.00;3.10;;;15.70;53.50;;;;;;5005825;28;20037;-81
2021/03/26 11:23:13;;;;;;;6.53;2.25;;;15.80;53.30;;;;;;5013011;28;20022;-81
2021/03/26 11:25:45;;;;;;;8.85;2.28;;;15.70;53.10;;;;;;5012507;28;20037;-81
2021/03/26 11:28:24;;;;;;;7.68;2.60;;;15.90;52.90;;;;;;5013975;28;20030;-81
2021/03/26 11:31:14;;;;;;;9.77;2.20;;;16.10;52.60;;;;;;5013981;28;20022;-81
2021/03/26 11:34:06;;;;;;;7.85;2.10;;;16.00;51.30;;;;;;4985109;28;20025;-82
2021/03/26 11:36:35;;;;;;;8.02;2.40;;;16.40;52.30;;;;;;5009200;28;20037;-82
2021/03/26 11:39:15;;;;;;;10.32;1.70;;;17.00;51.90;;;;;;5011848;28;20037;-82
2021/03/26 11:41:51;;;;;;;8.07;2.45;;;17.40;51.10;;;;;;5015571;28;20018;-83
2021/03/26 11:44:19;;;;;;;6.05;2.00;;;17.80;49.60;;;;;;5016165;28;20051;-83
2021/03/26 11:46:51;;;;;;;5.20;1.80;;;18.00;49.20;;;;;;5032015;28;20021;-83
2021/03/26 11:49:28;;;;;;;8.55;2.42;;;18.30;49.20;;;;;;5015088;28;20045;-83
2021/03/26 11:52:14;;;;;;;5.18;2.13;;;18.50;49.10;;;;;;5033311;28;20069;-84
2021/03/26 11:54:55;;;;;;;6.80;2.03;;;18.30;46.50;;;;;;5033098;28;20028;-84
2021/03/26 11:57:39;;;;;;;6.75;2.05;;;18.20;47.10;;;;;;5015624;28;20421;-87
2021/03/26 12:00:37;;;;;;;8.45;2.22;;;18.60;47.40;;;;;;5033893;28;20049;-84
2021/03/26 12:03:12;;;;;;;7.65;1.90;;;19.30;45.60;;;;;;5012913;28;20096;-81
2021/03/26 12:05:40;;;;;;;7.40;1.70;;;20.00;44.20;;;;;;5033142;28;20029;-86
2021/03/26 12:08:21;;;;;;;6.25;1.90;;;20.10;43.00;;;;;;5015546;28;20049;-84
2021/03/26 12:10:55;;;;;;;6.80;1.70;;;19.80;41.80;;;;;;5014612;28;20120;-87
2021/03/26 12:13:30;;;;;;;9.88;1.98;;;19.40;41.80;;;;;;5032293;28;20025;-81
2021/03/26 12:16:03;;;;;;;11.52;2.58;;;19.10;42.70;;;;;;5032803;28;20063;-82
2021/03/26 12:18:46;;;;;;;5.75;1.33;;;18.80;43.50;;;;;;5031520;28;20022;-82
2021/03/26 12:21:30;;;;;;;7.13;1.23;;;19.10;44.60;;;;;;5034034;28;20036;-86
2021/03/26 12:24:20;;;;;;;7.60;1.40;;;19.50;44.50;;;;;;5033456;28;20028;-87
2021/03/26 12:27:10;;;;;;;5.82;1.75;;;19.70;43.70;;;;;;5014197;28;20076;-86
2021/03/26 12:29:59;;;;;;;10.65;1.50;;;19.70;43.30;;;;;;5012610;28;20462;-86
2021/03/26 12:32:52;;;;;;;7.13;1.50;;;19.40;43.20;;;;;;5027456;28;20017;-86
2021/03/26 12:35:18;;;;;;;5.13;1.85;;;19.30;43.60;;;;;;5029660;28;20040;-86
2021/03/26 12:38:05;;;;;;;6.38;1.80;;;19.50;43.90;;;;;;5015771;28;20474;-86
2021/03/26 12:40:46;;;;;;;6.38;1.80;;;19.70;43.10;;;;;;5015484;28;20478;-86
2021/03/26 12:43:29;;;;;;;7.72;2.20;;;19.90;43.00;;;;;;5015371;28;20030;-87
2021/03/26 12:45:59;;;;;;;7.72;1.60;;;20.00;42.80;;;;;;5015900;28;20121;-86
2021/03/26 12:48:40;;;;;;;5.50;1.73;;;20.20;42.60;;;;;;5015709;28;20034;-85
2021/03/26 12:51:28;;;;;;;5.55;1.95;;;20.10;42.10;;;;;;5015026;28;20032;-86
2021/03/26 12:54:39;;;;;;;6.88;1.95;;;20.00;42.00;;;;;;5014404;28;20533;-83
2021/03/26 12:57:31;;;;;;;;;;;;;;;;;;;;;
2021/03/26 13:00:08;;;;;;;7.57;2.30;;;20.10;41.60;;;;;;5032752;28;20053;-85
2021/03/26 13:02:46;;;;;;;9.63;2.30;;;20.00;42.10;;;;;;5016482;28;20030;-86
2021/03/26 13:05:19;;;;;;;11.13;2.25;;;20.10;42.20;;;;;;5017499;28;20087;-85
2021/03/26 13:07:54;;;;;;;7.35;2.72;;;20.30;41.60;;;;;;5035062;28;20133;-85
2021/03/26 13:10:34;;;;;;;6.18;2.40;;;20.40;40.70;;;;;;5018642;28;20037;-86
2021/03/26 13:13:22;;;;;;;6.63;1.88;;;20.40;40.90;;;;;;5019850;28;20391;-90
2021/03/26 13:16:16;;;;;;;5.60;2.15;;;20.50;41.10;;;;;;5019135;28;20107;-87
2021/03/26 13:18:55;;;;;;;7.97;2.47;;;20.50;40.50;;;;;;5018359;28;20018;-85
2021/03/26 13:21:34;;;;;;;8.13;2.47;;;20.10;40.50;;;;;;5018782;28;20470;-85
2021/03/26 13:24:09;;;;;;;9.00;2.25;;;20.00;40.90;;;;;;5019057;28;20021;-86
2021/03/26 13:26:38;;;;;;;8.77;2.65;;;20.00;41.40;;;;;;5019005;28;20030;-85
2021/03/26 13:29:30;;;;;;;8.00;2.30;;;19.90;41.20;;;;;;5035974;28;20065;-85
2021/03/26 13:31:57;;;;;;;6.00;1.83;;;19.70;41.30;;;;;;5032228;28;20065;-85
2021/03/26 13:34:28;;;;;;;6.90;1.95;;;19.60;41.80;;;;;;5018563;28;20033;-85
2021/03/26 13:37:02;;;;;;;7.43;2.13;;;19.30;41.80;;;;;;5018853;28;20029;-87
2021/03/26 13:39:42;;;;;;;7.63;2.50;;;19.10;42.60;;;;;;5036430;28;20022;-87
2021/03/26 13:42:58;;;;;;;4.78;1.85;;;19.40;42.60;;;;;;5018877;28;20043;-86
2021/03/26 13:45:25;;;;;;;11.02;2.28;;;19.60;42.40;;;;;;4959163;28;20114;-85